Terminal Aerodrome Forecast
Issued by NWS

Home | Current Version | Previous Version | Text Only | Print | Product List | Glossary On
Versions: 1 2 3 4 5 6 7 8 9 10 11 12 13 14 15 16 17 18 19 20 21 22
000
FTAK31 PAJN 040527
TAFAPG
TAF
PAPG 040527Z 0406/0506 00000KT P6SM FEW035 BKN100
     FM041000 00000KT 6SM BR SCT005 BKN100
      TEMPO 0411/0415 3SM BR BKN005 BKN100
     FM041700 06006KT P6SM SCT020 BKN080
     FM050300 06002KT P6SM FEW030 BKN070=

USA.gov is the U.S. government's official web portal to all federal, state and local government web resources and services.